• Join FlightAware (Why Join?)
  • Login
  • US Flag 
12:50PM EDT


 

Airport Tracker/Info


-or-


 

Live Flight TrackerFlight Track Log ✈ N5FG ✈ 04-Aug-2013 ✈ KASX - KUGN

Flight Track Log - Related Links

Times and Time Zones

All times are in EDT time to prevent confusion due to time zone crossing. See the N5FG flight status page for this flight to view local times or setup timezone preferences in your user account.

Time Position Orientation Groundspeed Altitude Reporting Facility
EDT Latitude Longitude Course Direction KTS MPH feet Rate Location/Type
06:15PM 46.4975 -90.8697 145° Southeast 131 151 4,700  Level Minneapolis Center
06:16PM 46.4592 -90.8369 149° Southeast 132 152 5,500 720 Climbing Minneapolis Center
06:17PM 46.4239 -90.8072 150° Southeast 139 160 6,200 600 Climbing Minneapolis Center
06:18PM 46.3933 -90.7742 143° Southeast 140 161 6,800 540 Climbing Minneapolis Center
06:19PM 46.3619 -90.7411 144° Southeast 140 161 7,400 600 Climbing Minneapolis Center
06:20PM 46.2871 -90.7103 145° Southeast  Level Estimated
06:20PM 46.3294 -90.7075 144° Southeast 141 162 8,100  Level Minneapolis Center
06:21PM 46.2914 -90.6781 152° Southeast 146 168 8,900 420 Climbing Minneapolis Center
06:22PM 46.2550 -90.6425 146° Southeast 152 175 9,000 420 Climbing Minneapolis Center
06:23PM 46.2067 -90.5953 146° Southeast 165 190 9,800 540 Climbing Minneapolis Center
06:24PM 46.1658 -90.5583 148° Southeast 170 196 10,200 420 Climbing Minneapolis Center
06:25PM 46.1242 -90.5194 147° Southeast 174 200 10,700 360 Climbing Minneapolis Center
06:26PM 46.0833 -90.4803 146° Southeast 176 203 11,100 120 Climbing Minneapolis Center
06:27PM 46.0219 -90.4225 147° Southeast 183 211 11,100  Level Minneapolis Center
06:28PM 45.9744 -90.3800 148° Southeast 190 219 11,100  Level Minneapolis Center
06:29PM 45.9281 -90.3358 146° Southeast 195 224 11,100  Level Minneapolis Center
06:30PM 45.8808 -90.2919 147° Southeast 200 230 11,100  Level Minneapolis Center
06:31PM 45.8336 -90.2478 147° Southeast 202 232 11,100  Level Minneapolis Center
06:32PM 45.7881 -90.2042 146° Southeast 201 231 11,100  Level Minneapolis Center
06:33PM 45.7314 -90.1539 148° Southeast 199 229 11,100  Level Minneapolis Center
06:34PM 45.6839 -90.1097 147° Southeast 202 232 11,100  Level Minneapolis Center
06:36PM 45.6364 -90.0656 147° Southeast 203 234 11,100  Level Minneapolis Center
06:37PM 45.5883 -90.0225 148° Southeast 204 235 11,100  Level Minneapolis Center
06:38PM 45.5411 -89.9797 148° Southeast 203 234 11,100  Level Minneapolis Center
06:39PM 45.4844 -89.9258 146° Southeast 203 234 11,100 -60 Level Minneapolis Center
06:40PM 45.4364 -89.8828 148° Southeast 204 235 11,000 -60 Descending Minneapolis Center
06:41PM 45.3886 -89.8394 147° Southeast 204 235 11,000  Level Minneapolis Center
06:42PM 45.3417 -89.7964 147° Southeast 202 232 11,000  Level Minneapolis Center
06:43PM 45.3042 -89.7619 147° Southeast 202 232 11,000  Level Minneapolis Center
06:44PM 45.2481 -89.7128 148° Southeast 198 228 11,000  Level Minneapolis Center
06:45PM 45.1919 -89.6628 148° Southeast 198 228 11,000  Level Minneapolis Center
06:46PM 45.1442 -89.6194 147° Southeast 203 234 11,000  Level Minneapolis Center
06:47PM 45.0975 -89.5753 146° Southeast 202 232 11,000  Level Minneapolis Center
06:48PM 45.0453 -89.5333 150° Southeast 204 235 11,000  Level Minneapolis Center
06:49PM 44.9953 -89.4889 148° Southeast 204 235 11,000  Level Minneapolis Center
06:50PM 44.9442 -89.4428 147° Southeast 207 238 11,000  Level Minneapolis Center
06:51PM 44.8944 -89.3978 147° Southeast 206 237 11,000  Level Minneapolis Center
06:52PM 44.8564 -89.3622 146° Southeast 205 236 11,000  Level Minneapolis Center
06:53PM 44.7986 -89.3106 148° Southeast 204 235 11,000  Level Minneapolis Center
06:54PM 44.7472 -89.2664 149° Southeast 208 239 11,000  Level Minneapolis Center
06:55PM 44.6850 -89.2117 148° Southeast 206 237 11,000  Level Minneapolis Center
06:56PM 44.6344 -89.1686 149° Southeast 204 235 11,000  Level Minneapolis Center
06:57PM 44.5872 -89.1272 148° Southeast 206 237 11,000  Level Minneapolis Center
06:58PM 44.5372 -89.0825 147° Southeast 204 235 11,000  Level Minneapolis Center
07:00PM 44.4844 -89.0350 147° Southeast 206 237 11,000  Level Minneapolis Center
07:01PM 44.4364 -88.9900 146° Southeast 207 238 11,000  Level Minneapolis Center
07:02PM 44.3881 -88.9464 147° Southeast 206 237 11,000  Level Minneapolis Center
07:03PM 44.3383 -88.9061 150° Southeast 207 238 11,000  Level Minneapolis Center
07:04PM 44.2811 -88.8547 147° Southeast 209 241 11,000  Level Minneapolis Center
07:05PM 44.2328 -88.8125 148° Southeast 207 238 11,000  Level Minneapolis Center
07:06PM 44.1831 -88.7700 148° Southeast 208 239 11,000  Level Minneapolis Center
07:07PM 44.1350 -88.7283 148° Southeast 205 236 11,000  Level Minneapolis Center
07:07PM 44.1022 -88.7025 150° Southeast 205 236 11,000  Level Chicago Center
07:09PM 44.0536 -88.6594 148° Southeast 206 237 11,000  Level Chicago Center
07:10PM 43.9967 -88.6108 148° Southeast 205 236 11,000  Level Chicago Center
07:11PM 43.9472 -88.5686 148° Southeast 206 237 11,000  Level Chicago Center
07:12PM 43.8981 -88.5269 149° Southeast 206 237 11,000  Level Chicago Center
07:13PM 43.8494 -88.4850 148° Southeast 205 236 11,000  Level Chicago Center
07:14PM 43.7994 -88.4436 149° Southeast 207 238 11,000  Level Chicago Center
07:15PM 43.7419 -88.3942 148° Southeast 207 238 11,000  Level Chicago Center
07:16PM 43.6933 -88.3528 148° Southeast 205 236 11,000  Level Chicago Center
07:17PM 43.6436 -88.3111 149° Southeast 207 238 11,000  Level Chicago Center
07:18PM 43.5942 -88.2708 149° Southeast 205 236 11,000  Level Chicago Center
07:19PM 43.5456 -88.2281 147° Southeast 206 237 11,000  Level Chicago Center
07:20PM 43.4953 -88.1858 149° Southeast 210 242 11,000  Level Chicago Center
07:21PM 43.4444 -88.1428 148° Southeast 212 244 11,000  Level Chicago Center
07:22PM 43.3822 -88.1092 159° South 206 237 11,000  Level Chicago Center
07:23PM 43.3258 -88.0953 170° South 204 235 11,000 -120 Level Chicago Center
07:24PM 43.2697 -88.0858 173° South 202 232 10,800 -420 Descending Chicago Center
07:25PM 43.2097 -88.0719 170° South 215 247 10,200 -360 Descending Chicago Center
07:26PM 43.1497 -88.0567 169° South 218 251 10,100 -120 Descending Chicago Center
07:27PM 43.0956 -88.0372 165° South 206 237 10,000  Descending Chicago Center
07:28PM 43.0389 -87.9914 149° Southeast 201 231 10,100 -180 Climbing Chicago Center
07:29PM 42.9919 -87.9522 149° Southeast 199 229 9,700 -540 Descending Chicago Center
07:30PM 42.9389 -87.9108 150° Southeast 215 247 9,100 -660 Descending Chicago Center
07:31PM 42.8867 -87.8719 151° Southeast 215 247 8,400 -540 Descending Chicago Center
07:32PM 42.8322 -87.8322 152° Southeast 220 253 8,000 -660 Descending Chicago Center
07:33PM 42.7756 -87.7875 150° Southeast 204 235 7,100 -960 Descending Chicago Center
07:34PM 42.7192 -87.7783 173° South 207 238 6,100 -960 Descending Chicago Center
07:35PM 42.6647 -87.7908 190° South 199 229 5,200 -900 Descending Chicago Center
07:36PM 42.6119 -87.8086 194° South 196 226 4,300 -600 Descending Chicago Center
07:37PM 42.5611 -87.8258 194° South 188 216 4,000 -180 Descending Chicago Center
07:39PM 42.5286 -87.8556 214° Southwest 146 168 4,000  Level Chicago Center
07:40PM 42.4906 -87.8994 220° Southwest 152 175 4,000 -360 Level Chicago Center
07:41PM 42.4536 -87.9367 217° Southwest 163 188 3,300 -660 Descending Chicago Center
07:42PM 42.4153 -87.9467 191° South 164 189 2,700 -720 Descending Chicago Center
07:43PM 42.3950 -87.9094 126° Southeast 151 174 1,900 -780 Descending Chicago Center
07:45PM 42.4167 -87.8667 71° East  Level FlightAware Approximate